createdAt,value
2018-11-11T00:02:28.295Z,11.30
2018-11-11T00:05:03.497Z,11.30
2018-11-11T00:07:38.697Z,11.20
2018-11-11T00:10:13.771Z,10.90
2018-11-11T00:12:48.805Z,11.00
2018-11-11T00:15:24.636Z,10.70
2018-11-11T00:17:59.228Z,10.70
2018-11-11T00:20:33.984Z,10.90
2018-11-11T00:23:09.085Z,11.00
2018-11-11T00:25:43.828Z,10.70
2018-11-11T00:28:18.510Z,10.70
2018-11-11T00:30:53.445Z,10.90
2018-11-11T00:33:28.166Z,11.00
2018-11-11T00:36:02.967Z,10.90
2018-11-11T00:38:37.784Z,10.90
2018-11-11T00:41:12.771Z,10.90
2018-11-11T00:43:47.541Z,10.60
2018-11-11T00:46:23.041Z,10.60
2018-11-11T00:48:57.949Z,10.50
2018-11-11T00:51:32.620Z,10.80
2018-11-11T00:54:07.497Z,10.90
2018-11-11T00:56:42.678Z,10.90
2018-11-11T00:59:17.328Z,10.90
2018-11-11T01:01:52.232Z,10.70
2018-11-11T01:04:27.567Z,10.80
2018-11-11T01:07:02.465Z,10.80
2018-11-11T01:09:37.535Z,10.80
2018-11-11T01:12:12.663Z,10.90
2018-11-11T01:14:47.713Z,10.90
2018-11-11T01:17:23.190Z,10.90
2018-11-11T01:19:58.666Z,11.10
2018-11-11T01:22:33.200Z,11.20
2018-11-11T01:25:10.504Z,11.30
2018-11-11T01:27:45.149Z,11.40
2018-11-11T01:30:19.945Z,11.50
2018-11-11T01:32:55.410Z,11.60
2018-11-11T01:35:30.047Z,11.60
2018-11-11T01:38:04.956Z,11.70
2018-11-11T01:40:39.744Z,11.70
2018-11-11T01:43:14.665Z,11.70
2018-11-11T01:45:49.513Z,11.80
2018-11-11T01:48:25.032Z,11.80
2018-11-11T01:50:59.646Z,11.80
2018-11-11T01:53:34.291Z,11.90
2018-11-11T01:56:09.069Z,11.90
2018-11-11T01:58:43.900Z,11.90
2018-11-11T02:01:18.602Z,11.90
2018-11-11T02:03:54.021Z,11.90
2018-11-11T02:06:28.717Z,11.90
2018-11-11T02:09:04.090Z,12.00
2018-11-11T02:11:39.121Z,11.90
2018-11-11T02:14:14.257Z,11.90
2018-11-11T02:16:49.666Z,11.80
2018-11-11T02:19:24.611Z,11.90
2018-11-11T02:21:59.385Z,12.00
2018-11-11T02:24:34.890Z,12.20
2018-11-11T02:27:09.485Z,12.20
2018-11-11T02:29:44.367Z,12.40
2018-11-11T02:32:19.574Z,12.40
2018-11-11T02:34:54.347Z,12.40
2018-11-11T02:37:29.314Z,12.40
2018-11-11T02:40:05.555Z,12.40
2018-11-11T02:42:40.149Z,12.40
2018-11-11T02:45:16.155Z,12.50
2018-11-11T02:47:51.105Z,12.50
2018-11-11T02:50:26.201Z,12.60
2018-11-11T02:53:01.212Z,12.60
2018-11-11T02:55:35.849Z,12.70
2018-11-11T02:58:10.757Z,12.60
2018-11-11T03:00:45.563Z,12.60
2018-11-11T03:03:20.908Z,12.60
2018-11-11T03:05:55.796Z,12.60
2018-11-11T03:08:30.560Z,12.60
2018-11-11T03:11:05.781Z,12.60
2018-11-11T03:13:40.706Z,12.60
2018-11-11T03:16:15.429Z,12.60
2018-11-11T03:18:50.591Z,12.70
2018-11-11T03:21:25.265Z,12.60
2018-11-11T03:23:59.926Z,12.70
2018-11-11T03:26:34.993Z,12.70
2018-11-11T03:29:09.778Z,12.70
2018-11-11T03:31:44.725Z,12.70
2018-11-11T03:34:19.708Z,12.70
2018-11-11T03:36:54.549Z,12.60
2018-11-11T03:39:29.554Z,12.70
2018-11-11T03:42:04.517Z,12.70
2018-11-11T03:44:39.193Z,12.70
2018-11-11T03:47:14.153Z,12.70
2018-11-11T03:49:48.905Z,12.70
2018-11-11T03:52:23.990Z,12.80
2018-11-11T03:54:58.624Z,12.80
2018-11-11T03:57:33.458Z,12.80
2018-11-11T04:00:10.158Z,12.70
2018-11-11T04:02:45.675Z,12.70
2018-11-11T04:05:20.753Z,12.60
2018-11-11T04:07:56.139Z,12.70
2018-11-11T04:10:30.980Z,12.60
2018-11-11T04:13:05.873Z,12.70
2018-11-11T04:15:40.648Z,12.70
2018-11-11T04:18:15.408Z,12.60
2018-11-11T04:20:50.115Z,12.60
2018-11-11T04:23:25.122Z,12.60
2018-11-11T04:26:00.742Z,12.70
2018-11-11T04:28:36.090Z,12.70
2018-11-11T04:31:10.884Z,12.40
2018-11-11T04:33:45.714Z,12.40
2018-11-11T04:36:20.458Z,12.50
2018-11-11T04:38:55.047Z,12.40
2018-11-11T04:41:29.939Z,12.40
2018-11-11T04:44:04.811Z,12.40
2018-11-11T04:46:39.659Z,12.40
2018-11-11T04:49:14.461Z,12.30
2018-11-11T04:51:49.260Z,12.30
2018-11-11T04:54:23.854Z,12.30
2018-11-11T04:56:59.333Z,12.20
2018-11-11T04:59:34.272Z,12.20
2018-11-11T05:02:09.100Z,12.20
2018-11-11T05:04:44.131Z,12.20
2018-11-11T05:07:18.981Z,12.30
2018-11-11T05:09:53.625Z,12.30
2018-11-11T05:12:28.853Z,12.40
2018-11-11T05:15:04.494Z,12.40
2018-11-11T05:17:39.494Z,12.40
2018-11-11T05:20:15.799Z,12.40
2018-11-11T05:22:50.495Z,12.30
2018-11-11T05:25:25.358Z,12.40
2018-11-11T05:28:00.049Z,12.40
2018-11-11T05:30:34.928Z,12.40
2018-11-11T05:33:09.573Z,12.30
2018-11-11T05:35:44.510Z,12.30
2018-11-11T05:38:19.274Z,12.20
2018-11-11T05:40:54.067Z,12.20
2018-11-11T05:43:28.854Z,12.20
2018-11-11T05:46:03.696Z,12.10
2018-11-11T05:48:44.996Z,12.10
2018-11-11T05:51:19.813Z,12.00
2018-11-11T05:53:54.658Z,11.90
2018-11-11T05:56:30.323Z,11.90
2018-11-11T05:59:05.789Z,11.80
2018-11-11T06:01:40.722Z,11.70
2018-11-11T06:04:15.418Z,11.70
2018-11-11T06:06:50.261Z,11.70
2018-11-11T06:09:25.037Z,11.70
2018-11-11T06:11:59.782Z,11.70
2018-11-11T06:14:34.772Z,11.80
2018-11-11T06:17:09.806Z,11.70
2018-11-11T06:19:44.441Z,11.70
2018-11-11T06:22:19.105Z,11.70
2018-11-11T06:24:53.906Z,11.80
2018-11-11T06:27:28.603Z,11.80
2018-11-11T06:30:03.580Z,11.90
2018-11-11T06:32:38.457Z,11.90
2018-11-11T06:35:13.210Z,11.90
2018-11-11T06:37:47.973Z,11.90
2018-11-11T06:40:22.771Z,11.80
2018-11-11T06:42:57.484Z,11.90
2018-11-11T06:45:32.521Z,11.80
2018-11-11T06:48:07.252Z,11.80
2018-11-11T06:50:48.912Z,11.80
2018-11-11T06:53:23.634Z,11.60
2018-11-11T06:55:58.406Z,11.60
2018-11-11T06:58:34.201Z,11.60
2018-11-11T07:01:08.846Z,11.60
2018-11-11T07:03:59.450Z,11.60
2018-11-11T07:06:34.382Z,11.60
2018-11-11T07:09:09.065Z,11.40
2018-11-11T07:11:43.853Z,11.30
2018-11-11T07:14:18.706Z,11.40
2018-11-11T07:16:53.545Z,11.40
2018-11-11T07:19:28.416Z,11.50
2018-11-11T07:22:03.163Z,11.70
2018-11-11T07:24:37.995Z,11.80
2018-11-11T07:27:12.830Z,11.80
2018-11-11T07:29:47.614Z,11.80
2018-11-11T07:32:22.447Z,11.80
2018-11-11T07:34:57.230Z,11.90
2018-11-11T07:37:32.051Z,12.00
2018-11-11T07:40:09.358Z,12.00
2018-11-11T07:42:44.074Z,12.20
2018-11-11T07:45:18.793Z,12.70
2018-11-11T07:47:53.533Z,13.00
2018-11-11T07:50:28.449Z,12.90
2018-11-11T07:53:03.707Z,13.00
2018-11-11T07:55:38.729Z,12.90
2018-11-11T07:58:13.617Z,12.80
2018-11-11T08:00:48.653Z,12.80
2018-11-11T08:03:23.301Z,12.80
2018-11-11T08:05:58.303Z,12.70
2018-11-11T08:08:32.953Z,12.70
2018-11-11T08:11:19.199Z,12.70
2018-11-11T08:13:54.242Z,12.60
2018-11-11T08:16:29.098Z,12.70
2018-11-11T08:19:04.248Z,12.70
2018-11-11T08:21:39.382Z,12.80
2018-11-11T08:24:14.026Z,12.90
2018-11-11T08:26:49.264Z,12.90
2018-11-11T08:29:24.150Z,12.90
2018-11-11T08:31:58.975Z,12.70
2018-11-11T08:34:34.114Z,12.70
2018-11-11T08:37:08.791Z,12.90
2018-11-11T08:39:43.583Z,13.00
2018-11-11T08:42:18.472Z,13.30
2018-11-11T08:44:53.276Z,13.60
2018-11-11T08:47:28.222Z,13.80
2018-11-11T08:50:02.981Z,13.80
2018-11-11T08:52:38.063Z,13.80
2018-11-11T08:55:12.807Z,13.80
2018-11-11T08:57:47.514Z,13.80
2018-11-11T09:00:22.599Z,13.80
2018-11-11T09:02:57.423Z,13.80
2018-11-11T09:05:32.999Z,13.80
2018-11-11T09:08:08.116Z,13.70
2018-11-11T09:10:43.098Z,13.70
2018-11-11T09:13:17.967Z,13.70
2018-11-11T09:15:52.805Z,13.70
2018-11-11T09:18:28.349Z,13.70
2018-11-11T09:21:09.754Z,13.80
2018-11-11T09:23:44.783Z,13.80
2018-11-11T09:26:19.765Z,13.90
2018-11-11T09:28:54.553Z,14.00
2018-11-11T09:31:29.385Z,14.10
2018-11-11T09:34:04.269Z,14.30
2018-11-11T09:36:39.057Z,14.40
2018-11-11T09:39:13.810Z,14.60
2018-11-11T09:41:48.584Z,14.50
2018-11-11T09:44:23.445Z,14.50
2018-11-11T09:46:58.261Z,14.40
2018-11-11T09:49:33.002Z,14.40
2018-11-11T09:52:07.748Z,14.40
2018-11-11T09:54:42.754Z,14.40
2018-11-11T09:57:17.465Z,14.40
2018-11-11T09:59:52.391Z,14.40
2018-11-11T10:02:27.449Z,14.40
2018-11-11T10:05:10.759Z,14.50
2018-11-11T10:07:58.804Z,14.50
2018-11-11T10:10:39.941Z,14.60
2018-11-11T10:13:21.501Z,14.70
2018-11-11T10:16:06.306Z,14.90
2018-11-11T10:18:47.319Z,14.90
2018-11-11T10:21:26.541Z,14.90
2018-11-11T10:24:05.638Z,14.90
2018-11-11T10:27:04.633Z,14.90
2018-11-11T10:29:46.369Z,15.00
2018-11-11T10:33:38.429Z,15.10
2018-11-11T10:36:26.282Z,15.40
2018-11-11T10:39:07.443Z,15.90
2018-11-11T10:41:56.907Z,17.10
2018-11-11T10:45:10.702Z,17.30
2018-11-11T10:47:52.552Z,16.80
2018-11-11T10:50:31.419Z,16.40
2018-11-11T10:53:06.651Z,16.20
2018-11-11T10:55:42.120Z,16.10
2018-11-11T10:58:17.952Z,16.10
2018-11-11T11:00:58.595Z,15.90
2018-11-11T11:03:34.662Z,15.60
2018-11-11T11:06:09.432Z,15.30
2018-11-11T11:08:49.605Z,15.20
2018-11-11T11:11:24.515Z,15.10
2018-11-11T11:13:59.280Z,14.90
2018-11-11T11:16:34.208Z,14.60
2018-11-11T11:19:09.225Z,14.40
2018-11-11T11:21:44.344Z,14.30
2018-11-11T11:24:19.176Z,14.20
2018-11-11T11:26:53.905Z,14.20
2018-11-11T11:29:28.738Z,14.20
2018-11-11T11:32:03.636Z,14.20
2018-11-11T11:34:38.532Z,14.20
2018-11-11T11:37:13.338Z,14.20
2018-11-11T11:39:48.461Z,14.30
2018-11-11T11:42:23.189Z,14.30
2018-11-11T11:44:58.002Z,14.50
2018-11-11T11:47:32.828Z,14.50
2018-11-11T11:50:09.570Z,14.60
2018-11-11T11:52:45.203Z,14.70
2018-11-11T11:55:20.212Z,14.60
2018-11-11T11:58:10.089Z,14.60
2018-11-11T12:00:45.038Z,14.60
2018-11-11T12:03:19.599Z,14.50
2018-11-11T12:05:54.838Z,14.50
2018-11-11T12:08:29.870Z,14.60
2018-11-11T12:11:04.870Z,14.60
2018-11-11T12:13:39.541Z,14.60
2018-11-11T12:16:14.670Z,14.60
2018-11-11T12:18:49.467Z,14.80
2018-11-11T12:21:24.451Z,14.90
2018-11-11T12:23:59.327Z,14.90
2018-11-11T12:26:34.092Z,15.00
2018-11-11T12:29:08.941Z,15.10
2018-11-11T12:31:43.575Z,15.00
2018-11-11T12:34:18.459Z,15.00
2018-11-11T12:36:53.535Z,15.00
2018-11-11T12:39:28.345Z,15.00
2018-11-11T12:42:03.256Z,14.90
2018-11-11T12:44:38.000Z,14.80
2018-11-11T12:47:13.054Z,14.70
2018-11-11T12:49:48.174Z,14.70
2018-11-11T12:52:23.054Z,14.70
2018-11-11T12:54:57.845Z,14.70
2018-11-11T12:57:32.732Z,14.70
2018-11-11T13:00:12.690Z,14.70
2018-11-11T13:02:47.494Z,14.70
2018-11-11T13:05:22.382Z,14.70
2018-11-11T13:07:57.236Z,14.80
2018-11-11T13:10:32.308Z,14.70
2018-11-11T13:13:07.016Z,14.80
2018-11-11T13:15:41.852Z,14.70
2018-11-11T13:18:16.740Z,14.70
2018-11-11T13:20:51.539Z,14.70
2018-11-11T13:23:26.523Z,14.70
2018-11-11T13:26:01.279Z,14.60
2018-11-11T13:28:35.925Z,14.50
2018-11-11T13:31:10.872Z,14.60
2018-11-11T13:33:45.721Z,14.60
2018-11-11T13:36:20.472Z,14.60
2018-11-11T13:38:55.350Z,14.60
2018-11-11T13:41:30.188Z,14.60
2018-11-11T13:44:05.580Z,14.60
2018-11-11T13:46:40.740Z,14.50
2018-11-11T13:49:15.769Z,14.50
2018-11-11T13:51:51.491Z,14.60
2018-11-11T13:54:26.446Z,14.70
2018-11-11T13:57:01.958Z,15.70
2018-11-11T13:59:37.495Z,17.90
2018-11-11T14:02:13.018Z,19.80
2018-11-11T14:04:49.597Z,20.50
2018-11-11T14:07:25.942Z,19.70
2018-11-11T14:10:01.382Z,18.90
2018-11-11T14:12:37.662Z,18.50
2018-11-11T14:15:18.020Z,17.90
2018-11-11T14:17:55.003Z,17.60
2018-11-11T14:20:30.420Z,17.40
2018-11-11T14:23:06.370Z,18.20
2018-11-11T14:25:41.825Z,18.70
2018-11-11T14:28:17.322Z,18.50
2018-11-11T14:30:52.665Z,19.50
2018-11-11T14:33:28.066Z,19.70
2018-11-11T14:36:04.195Z,19.20
2018-11-11T14:38:39.535Z,18.30
2018-11-11T14:41:15.156Z,17.40
2018-11-11T14:43:50.694Z,16.90
2018-11-11T14:46:26.796Z,16.60
2018-11-11T14:49:02.125Z,16.50
2018-11-11T14:51:37.914Z,16.30
2018-11-11T14:54:13.323Z,16.10
2018-11-11T14:56:48.405Z,16.00
2018-11-11T14:59:23.945Z,15.80
2018-11-11T15:01:59.798Z,15.80
2018-11-11T15:04:34.644Z,15.70
2018-11-11T15:07:10.672Z,15.70
2018-11-11T15:09:45.468Z,15.60
2018-11-11T15:12:20.554Z,15.50
2018-11-11T15:14:55.642Z,15.50
2018-11-11T15:17:30.680Z,15.40
2018-11-11T15:20:06.908Z,15.40
2018-11-11T15:22:41.864Z,15.30
2018-11-11T15:25:18.107Z,15.20
2018-11-11T15:27:52.936Z,15.20
2018-11-11T15:30:29.814Z,15.10
2018-11-11T15:33:05.490Z,15.00
2018-11-11T15:35:40.180Z,14.90
2018-11-11T15:38:14.813Z,14.80
2018-11-11T15:40:49.778Z,14.80
2018-11-11T15:43:24.789Z,14.70
2018-11-11T15:45:59.606Z,14.60
2018-11-11T15:48:34.364Z,14.60
2018-11-11T15:51:09.441Z,14.50
2018-11-11T15:53:44.328Z,14.50
2018-11-11T15:56:19.874Z,14.50
2018-11-11T15:58:54.646Z,14.40
2018-11-11T16:01:29.702Z,14.40
2018-11-11T16:04:04.713Z,14.30
2018-11-11T16:06:39.725Z,14.20
2018-11-11T16:09:14.472Z,14.00
2018-11-11T16:11:49.390Z,14.00
2018-11-11T16:14:24.219Z,13.80
2018-11-11T16:16:59.240Z,13.80
2018-11-11T16:19:34.091Z,13.70
2018-11-11T16:22:09.071Z,13.60
2018-11-11T16:24:43.886Z,13.40
2018-11-11T16:27:19.326Z,13.40
2018-11-11T16:29:54.823Z,13.30
2018-11-11T16:32:29.763Z,13.20
2018-11-11T16:35:06.381Z,13.10
2018-11-11T16:37:41.503Z,13.00
2018-11-11T16:40:21.148Z,13.00
2018-11-11T16:42:57.129Z,12.90
2018-11-11T16:45:33.043Z,12.90
2018-11-11T16:48:08.049Z,12.80
2018-11-11T16:50:42.799Z,12.80
2018-11-11T16:53:17.861Z,12.80
2018-11-11T16:55:52.924Z,12.60
2018-11-11T16:58:28.094Z,12.60
2018-11-11T17:01:03.494Z,12.50
2018-11-11T17:03:38.620Z,12.60
2018-11-11T17:06:13.455Z,12.40
2018-11-11T17:08:48.968Z,12.40
2018-11-11T17:11:23.990Z,12.20
2018-11-11T17:13:58.750Z,12.20
2018-11-11T17:16:33.513Z,12.10
2018-11-11T17:19:08.680Z,12.20
2018-11-11T17:21:43.881Z,12.20
2018-11-11T17:24:18.835Z,12.20
2018-11-11T17:26:53.774Z,12.00
2018-11-11T17:29:28.808Z,12.10
2018-11-11T17:32:04.404Z,12.10
2018-11-11T17:34:39.209Z,12.00
2018-11-11T17:37:14.282Z,12.00
2018-11-11T17:39:49.372Z,11.90
2018-11-11T17:42:24.120Z,11.80
2018-11-11T17:44:59.461Z,11.80
2018-11-11T17:47:34.742Z,11.70
2018-11-11T17:50:13.971Z,11.80
2018-11-11T17:52:49.601Z,11.60
2018-11-11T17:55:25.983Z,11.70
2018-11-11T17:58:01.234Z,11.70
2018-11-11T18:00:36.388Z,11.80
2018-11-11T18:03:11.603Z,11.70
2018-11-11T18:05:47.448Z,11.70
2018-11-11T18:08:22.408Z,12.10
2018-11-11T18:10:57.630Z,11.80
2018-11-11T18:13:32.986Z,11.80
2018-11-11T18:16:08.016Z,11.80
2018-11-11T18:18:42.891Z,11.70
2018-11-11T18:21:18.236Z,11.70
2018-11-11T18:23:53.056Z,11.70
2018-11-11T18:26:31.066Z,11.70
2018-11-11T18:29:07.211Z,11.60
2018-11-11T18:31:42.668Z,11.60
2018-11-11T18:34:17.681Z,11.60
2018-11-11T18:36:53.641Z,11.60
2018-11-11T18:39:28.686Z,11.60
2018-11-11T18:42:04.504Z,11.50
2018-11-11T18:44:39.409Z,11.40
2018-11-11T18:47:15.499Z,11.50
2018-11-11T18:49:50.825Z,11.50
2018-11-11T18:52:25.948Z,11.50
2018-11-11T18:55:01.519Z,11.40
2018-11-11T18:57:36.977Z,11.30
2018-11-11T19:00:15.598Z,11.30
2018-11-11T19:02:52.352Z,11.20
2018-11-11T19:05:28.068Z,11.20
2018-11-11T19:08:03.252Z,11.00
2018-11-11T19:10:38.313Z,11.00
2018-11-11T19:13:13.696Z,10.90
2018-11-11T19:15:51.609Z,10.90
2018-11-11T19:18:26.858Z,10.80
2018-11-11T19:21:01.877Z,10.60
2018-11-11T19:23:36.844Z,10.60
2018-11-11T19:26:11.737Z,10.60
2018-11-11T19:28:46.623Z,10.50
2018-11-11T19:31:21.840Z,10.60
2018-11-11T19:33:56.742Z,10.60
2018-11-11T19:36:31.890Z,10.40
2018-11-11T19:39:09.914Z,10.60
2018-11-11T19:41:45.488Z,10.60
2018-11-11T19:44:20.604Z,10.70
2018-11-11T19:46:55.854Z,10.70
2018-11-11T19:49:30.872Z,10.70
2018-11-11T19:52:06.902Z,10.80
2018-11-11T19:54:41.918Z,10.80
2018-11-11T19:57:17.111Z,10.80
2018-11-11T19:59:52.243Z,10.80
2018-11-11T20:02:27.236Z,10.90
2018-11-11T20:05:02.454Z,10.90
2018-11-11T20:07:37.737Z,10.80
2018-11-11T20:10:14.042Z,10.80
2018-11-11T20:12:50.206Z,10.80
2018-11-11T20:15:33.165Z,10.80
2018-11-11T20:18:08.067Z,10.70
2018-11-11T20:20:42.887Z,10.60
2018-11-11T20:23:17.734Z,10.60
2018-11-11T20:25:52.733Z,10.20
2018-11-11T20:28:28.402Z,10.10
2018-11-11T20:31:03.447Z,10.20
2018-11-11T20:33:38.526Z,10.20
2018-11-11T20:36:13.291Z,10.30
2018-11-11T20:38:48.381Z,10.20
2018-11-11T20:41:23.090Z,10.30
2018-11-11T20:43:58.532Z,10.20
2018-11-11T20:46:33.591Z,10.10
2018-11-11T20:49:08.877Z,10.00
2018-11-11T20:51:43.963Z,10.10
2018-11-11T20:54:19.178Z,10.30
2018-11-11T20:56:54.048Z,10.40
2018-11-11T20:59:29.123Z,10.40
2018-11-11T21:02:04.671Z,10.40
2018-11-11T21:04:39.428Z,10.40
2018-11-11T21:07:14.506Z,10.70
2018-11-11T21:09:50.195Z,10.60
2018-11-11T21:12:26.243Z,10.70
2018-11-11T21:15:01.170Z,10.80
2018-11-11T21:17:36.434Z,10.70
2018-11-11T21:20:12.878Z,10.70
2018-11-11T21:22:47.717Z,10.70
2018-11-11T21:25:23.212Z,10.70
2018-11-11T21:27:58.463Z,10.80
2018-11-11T21:30:33.995Z,10.70
2018-11-11T21:33:09.266Z,10.70
2018-11-11T21:35:44.344Z,10.80
2018-11-11T21:38:19.330Z,10.80
2018-11-11T21:40:54.449Z,10.90
2018-11-11T21:43:29.648Z,10.80
2018-11-11T21:46:04.463Z,10.80
2018-11-11T21:48:39.839Z,11.00
2018-11-11T21:51:14.649Z,11.00
2018-11-11T21:53:49.717Z,11.10
2018-11-11T21:56:24.787Z,11.40
2018-11-11T21:59:00.417Z,11.60
2018-11-11T22:01:35.120Z,11.80
2018-11-11T22:04:09.922Z,11.90
2018-11-11T22:06:44.994Z,12.00
2018-11-11T22:09:19.953Z,12.00
2018-11-11T22:11:55.137Z,12.00
2018-11-11T22:14:30.066Z,12.10
2018-11-11T22:17:05.107Z,12.10
2018-11-11T22:19:40.349Z,12.10
2018-11-11T22:22:15.164Z,12.10
2018-11-11T22:24:50.594Z,12.20
2018-11-11T22:27:25.954Z,12.20
2018-11-11T22:30:01.504Z,12.20
2018-11-11T22:32:36.856Z,12.20
2018-11-11T22:35:12.144Z,12.10
2018-11-11T22:37:46.863Z,12.20
2018-11-11T22:40:21.621Z,12.20
2018-11-11T22:42:56.377Z,12.20
2018-11-11T22:45:31.133Z,12.20
2018-11-11T22:48:07.020Z,12.10
2018-11-11T22:50:41.989Z,12.10
2018-11-11T22:53:16.862Z,12.10
2018-11-11T22:55:51.891Z,12.10
2018-11-11T22:58:26.908Z,12.00
2018-11-11T23:01:07.108Z,11.80
2018-11-11T23:03:42.093Z,11.70
2018-11-11T23:06:17.253Z,11.50
2018-11-11T23:08:52.539Z,11.50
2018-11-11T23:11:27.641Z,11.30
2018-11-11T23:14:02.968Z,11.30
2018-11-11T23:16:38.509Z,11.30
2018-11-11T23:19:14.043Z,11.30
2018-11-11T23:21:48.811Z,11.30
2018-11-11T23:24:23.877Z,11.50
2018-11-11T23:26:58.622Z,11.60
2018-11-11T23:29:33.620Z,11.60
2018-11-11T23:32:08.224Z,11.60
2018-11-11T23:34:43.227Z,11.60
2018-11-11T23:37:18.036Z,11.60
2018-11-11T23:39:52.773Z,11.60
2018-11-11T23:42:27.716Z,11.60
2018-11-11T23:45:02.398Z,11.60
2018-11-11T23:47:37.940Z,11.70
2018-11-11T23:50:14.574Z,11.70
2018-11-11T23:52:50.353Z,11.70
2018-11-11T23:55:25.053Z,11.70
2018-11-11T23:58:00.206Z,11.70
